»·PEaware :: QXE2377 KSJC-KPSP

QXE2377 :: KSJC-KPSP

FLIGHT INFORMATION

Flight Status: Arrived
Operator:
Horizon Air
More flights by this operator :: More flights under this callsign
Pilot: Joao Paulo C. (16594)
Aircraft: DEHAVILLAND DASH 8 400
(DH8D)
More flights by this aircraft type
Origin: KSJC Mineta San Jose Intl
United States
Destination: KPSP Palm Springs Intl
United States
More flights between these airports :: More routes between these airports
Route: +TECKY3 EBAYE CLASN SIZLR2
File this flight plan on PilotEdge
Remarks:
Altitude:
(Current/Filed)
25,000ft
Speed:
(Current/Filed)
323kts
Departed: 22-Sep-17 02:12 PM
Arrived: 22-Sep-17 03:33 PM
Distance/Time
Traveled:
339nm/1:21
Distance/Time
To Go:
Arrived

Flight Plot

Page will automatically refresh every two minutes.

Flight plan parsing failed; only flown route is shown


Map Options




Map Legend


Flown Route
Filed Route
Departure Airport
Arrival Airport
Navaid (VOR, NDB)
Fix

Horizontal Profiles

Position Reports

Time Latitude Longitude Heading Altitude Ground
Speed
22-Sep-17 13:54 37.360645 -121.919678 137 69ft 0kts
22-Sep-17 13:55 37.360645 -121.919678 137 69ft 0kts
22-Sep-17 13:56 37.360645 -121.919678 137 69ft 0kts
22-Sep-17 13:57 37.360645 -121.919678 137 69ft 0kts
22-Sep-17 13:58 37.360645 -121.919678 137 69ft 0kts
22-Sep-17 13:59 37.360645 -121.919678 137 69ft 0kts
22-Sep-17 14:00 37.360645 -121.919678 137 69ft 0kts
22-Sep-17 14:01 37.360645 -121.919678 137 69ft 0kts
22-Sep-17 14:02 37.360645 -121.919678 137 69ft 0kts
22-Sep-17 14:03 37.360645 -121.919678 137 69ft 0kts
22-Sep-17 14:04 37.360645 -121.919678 137 69ft 0kts
22-Sep-17 14:05 37.360645 -121.919678 137 69ft 0kts
22-Sep-17 14:06 37.360645 -121.919678 137 69ft 0kts
22-Sep-17 14:07 37.360645 -121.919678 137 69ft 0kts
22-Sep-17 14:08 37.360645 -121.919678 137 69ft 0kts
22-Sep-17 14:09 37.360645 -121.919678 137 69ft 0kts
22-Sep-17 14:10 37.360645 -121.919678 137 69ft 0kts
22-Sep-17 14:11 37.358415 -121.918924 138 69ft 25kts
22-Sep-17 14:12 37.355176 -121.915171 140 69ft 15kts
22-Sep-17 14:13 37.353319 -121.915227 229 69ft 0kts
22-Sep-17 14:14 37.353319 -121.915227 229 69ft 0kts
22-Sep-17 14:15 37.353319 -121.915227 229 69ft 0kts
22-Sep-17 14:16 37.354122 -121.917317 317 69ft 50kts
22-Sep-17 14:17 37.381845 -121.950923 315 1673ft 180kts
22-Sep-17 14:18 37.428876 -121.972579 29 4393ft 208kts
22-Sep-17 14:19 37.432693 -121.908212 133 5041ft 215kts
22-Sep-17 14:20 37.392120 -121.861305 135 5335ft 189kts
22-Sep-17 14:21 37.352988 -121.816423 134 7489ft 190kts
22-Sep-17 14:22 37.312916 -121.770010 135 9523ft 198kts
22-Sep-17 14:23 37.269917 -121.721469 134 12038ft 216kts
22-Sep-17 14:24 37.221544 -121.666362 135 14053ft 248kts
22-Sep-17 14:25 37.168762 -121.606678 135 15951ft 264kts
22-Sep-17 14:26 37.112854 -121.543586 135 17641ft 277kts
22-Sep-17 14:27 37.054089 -121.477387 136 18907ft 299kts
22-Sep-17 14:28 36.988219 -121.407223 139 19303ft 316kts
22-Sep-17 14:29 36.921296 -121.336381 139 20341ft 312kts
22-Sep-17 14:30 36.858110 -121.268927 139 22032ft 296kts
22-Sep-17 14:31 36.794680 -121.201685 140 23138ft 301kts
22-Sep-17 14:32 36.733310 -121.136820 141 24105ft 305kts
22-Sep-17 14:33 36.668402 -121.068425 141 24883ft 313kts
22-Sep-17 14:34 36.599516 -120.996085 142 24980ft 337kts
22-Sep-17 14:35 36.524624 -120.919974 142 24973ft 356kts
22-Sep-17 14:36 36.446842 -120.841133 143 24969ft 367kts
22-Sep-17 14:37 36.367354 -120.760766 143 24966ft 372kts
22-Sep-17 14:38 36.287568 -120.680071 143 24963ft 374kts
22-Sep-17 14:39 36.207909 -120.599824 143 24962ft 374kts
22-Sep-17 14:40 36.127211 -120.518819 143 24961ft 374kts
22-Sep-17 14:41 36.047216 -120.438614 143 24958ft 374kts
22-Sep-17 14:42 35.967027 -120.358450 143 24956ft 373kts
22-Sep-17 14:43 35.887062 -120.278542 141 24956ft 373kts
22-Sep-17 14:44 35.841979 -120.164016 105 24955ft 381kts
22-Sep-17 14:45 35.809074 -120.040002 111 24957ft 380kts
22-Sep-17 14:46 35.774644 -119.917285 109 24957ft 380kts
22-Sep-17 14:47 35.741248 -119.795360 110 24958ft 380kts
22-Sep-17 14:48 35.707134 -119.672238 110 24958ft 380kts
22-Sep-17 14:49 35.673133 -119.549957 110 24957ft 380kts
22-Sep-17 14:50 35.618071 -119.443700 138 24957ft 372kts
22-Sep-17 14:51 35.547233 -119.351789 134 24955ft 375kts
22-Sep-17 14:52 35.478923 -119.257796 135 24954ft 375kts
22-Sep-17 14:53 35.409244 -119.164637 136 24953ft 375kts
22-Sep-17 14:54 35.339317 -119.070899 136 24835ft 370kts
22-Sep-17 14:55 35.271656 -118.980846 136 24235ft 354kts
22-Sep-17 14:56 35.204618 -118.892349 136 24042ft 358kts
22-Sep-17 14:57 35.136620 -118.802689 136 23969ft 365kts
22-Sep-17 14:58 35.067712 -118.711811 136 23979ft 370kts
22-Sep-17 14:59 34.997694 -118.619758 136 23979ft 372kts
22-Sep-17 15:00 34.927239 -118.527499 136 23977ft 373kts
22-Sep-17 15:01 34.856608 -118.435253 136 23967ft 373kts
22-Sep-17 15:02 34.785730 -118.342800 135 23936ft 374kts
22-Sep-17 15:03 34.729240 -118.257909 130 23089ft 354kts
22-Sep-17 15:04 34.671177 -118.166087 131 22091ft 340kts
22-Sep-17 15:05 34.614880 -118.079637 131 21097ft 326kts
22-Sep-17 15:06 34.562501 -117.987793 118 20097ft 338kts
22-Sep-17 15:07 34.522344 -117.883511 120 19100ft 345kts
22-Sep-17 15:08 34.478780 -117.779734 120 18103ft 347kts
22-Sep-17 15:09 34.436164 -117.675776 120 17388ft 337kts
22-Sep-17 15:10 34.395306 -117.575665 120 16782ft 329kts
22-Sep-17 15:11 34.355702 -117.479119 119 16199ft 323kts
22-Sep-17 15:12 34.317110 -117.384706 120 15929ft 310kts
22-Sep-17 15:13 34.277022 -117.291521 123 15913ft 315kts
22-Sep-17 15:14 34.233298 -117.200084 123 15919ft 317kts
22-Sep-17 15:15 34.190180 -117.108263 123 15921ft 314kts
22-Sep-17 15:16 34.148102 -117.018584 123 15934ft 307kts
22-Sep-17 15:17 34.106184 -116.929691 123 15949ft 304kts
22-Sep-17 15:18 34.063628 -116.839050 123 14856ft 322kts
22-Sep-17 15:19 34.024761 -116.746064 111 13660ft 298kts
22-Sep-17 15:20 34.001160 -116.652653 111 11867ft 286kts
22-Sep-17 15:21 33.977515 -116.565716 112 10894ft 245kts
22-Sep-17 15:22 33.940055 -116.510115 139 9810ft 218kts
22-Sep-17 15:23 33.895395 -116.459979 136 8887ft 222kts
22-Sep-17 15:24 33.854219 -116.412341 136 8975ft 213kts
22-Sep-17 15:25 33.809584 -116.358868 136 8876ft 239kts
22-Sep-17 15:26 33.758021 -116.299176 136 8806ft 270kts
22-Sep-17 15:27 33.706890 -116.234652 125 6032ft 255kts
22-Sep-17 15:28 33.658527 -116.202717 219 4286ft 198kts
22-Sep-17 15:29 33.652703 -116.254781 295 2796ft 151kts
22-Sep-17 15:30 33.681941 -116.294432 322 2043ft 172kts
22-Sep-17 15:31 33.715223 -116.334389 315 1871ft 159kts
22-Sep-17 15:32 33.740625 -116.373041 304 2228ft 145kts
22-Sep-17 15:33 33.758772 -116.408115 298 2010ft 148kts
22-Sep-17 15:34 33.774945 -116.448137 297 1573ft 131kts
22-Sep-17 15:35 33.797023 -116.479420 323 1075ft 121kts
22-Sep-17 15:36 33.823623 -116.502208 319 485ft 81kts
22-Sep-17 15:37 33.827940 -116.507034 184 484ft 8kts
22-Sep-17 15:38 33.827860 -116.507041 184 484ft 0kts
22-Sep-17 15:39 33.827860 -116.507041 184 484ft 0kts
22-Sep-17 15:40 33.825047 -116.505407 192 484ft 9kts
22-Sep-17 15:41 33.823480 -116.507718 222 484ft 4kts
22-Sep-17 15:42 33.823394 -116.507789 210 484ft 0kts
22-Sep-17 15:43 33.823394 -116.507789 210 484ft 0kts

Navigation Log

Ident Type
Flight plan parsing failed, navigation log unavailable